Time;durP1;ratioP1;P1;durP2;ratioP2;P2;SDS_P1;SDS_P2;PMS_P1;PMS_P2;Temp;Humidity;BMP_temperature;BMP_pressure;BME280_temperature;BME280_humidity;BME280_pressure;Samples;Min_cycle;Max_cycle;Signal;HPM_P1;HPM_P2
2023/10/02 00:01:07;;;;;;;5.85;2.70;;;;;;;19.51;100.00;101324.81;5030492;28;20033;-66
2023/10/02 00:03:40;;;;;;;7.10;2.55;;;;;;;19.49;100.00;101326.41;5026508;28;20029;-66
2023/10/02 00:06:09;;;;;;;7.72;2.95;;;;;;;19.49;100.00;101324.44;5027607;28;20037;-67
2023/10/02 00:08:49;;;;;;;7.60;3.15;;;;;;;19.51;100.00;101330.28;5030955;28;20099;-67
2023/10/02 00:11:36;;;;;;;8.68;2.55;;;;;;;19.51;100.00;101332.25;5023673;28;20037;-66
2023/10/02 00:14:20;;;;;;;5.47;2.63;;;;;;;19.53;100.00;101324.44;5019168;28;20032;-66
2023/10/02 00:16:59;;;;;;;7.18;2.92;;;;;;;19.58;100.00;101324.78;5025807;28;20039;-67
2023/10/02 00:19:38;;;;;;;6.35;2.90;;;;;;;19.57;100.00;101325.94;5023450;28;20138;-66
2023/10/02 00:22:05;;;;;;;9.75;2.95;;;;;;;19.57;100.00;101319.69;5023876;28;20091;-66
2023/10/02 00:24:35;;;;;;;7.13;3.03;;;;;;;19.58;100.00;101300.19;5029498;28;20144;-67
2023/10/02 00:27:03;;;;;;;6.45;2.72;;;;;;;19.60;100.00;101295.09;5024736;28;20069;-66
2023/10/02 00:29:29;;;;;;;8.85;3.17;;;;;;;19.61;100.00;101298.59;5028561;28;20063;-66
2023/10/02 00:31:56;;;;;;;9.70;3.00;;;;;;;19.60;100.00;101283.38;5029509;28;20061;-67
2023/10/02 00:34:30;;;;;;;11.55;2.65;;;;;;;19.61;100.00;101282.19;5029159;28;20014;-66
2023/10/02 00:36:59;;;;;;;6.32;3.05;;;;;;;19.62;100.00;101279.09;5027164;28;20623;-67
2023/10/02 00:39:25;;;;;;;9.55;3.40;;;;;;;19.58;100.00;101281.06;5027376;28;20036;-67
2023/10/02 00:44:54;;;;;;;7.93;2.70;;;;;;;19.59;100.00;101285.34;5026013;28;20034;-67
2023/10/02 00:47:49;;;;;;;8.15;3.10;;;;;;;19.53;100.00;101291.63;5028184;28;20044;-66
2023/10/02 00:50:20;;;;;;;6.72;2.47;;;;;;;19.48;100.00;101287.38;5028216;28;20549;-66
2023/10/02 00:53:05;;;;;;;10.30;3.58;;;;;;;19.45;100.00;101284.66;5029784;28;20068;-67
2023/10/02 00:55:35;;;;;;;7.82;2.78;;;;;;;19.53;100.00;101286.19;5029389;28;20030;-67
2023/10/02 00:58:08;;;;;;;9.48;3.97;;;;;;;19.56;100.00;101288.88;5015501;28;20036;-66
2023/10/02 01:00:42;;;;;;;5.03;2.78;;;;;;;19.48;100.00;101287.38;5024520;28;20037;-67
2023/10/02 01:03:14;;;;;;;11.55;3.30;;;;;;;19.53;100.00;101297.09;5010241;28;20026;-67
2023/10/02 01:05:47;;;;;;;7.80;2.90;;;;;;;19.58;100.00;101296.66;5027631;28;20125;-67
2023/10/02 01:11:07;;;;;;;9.93;2.95;;;;;;;19.56;99.71;101290.81;5024183;28;20037;-67
2023/10/02 01:13:34;;;;;;;8.18;2.67;;;;;;;19.56;99.77;101277.16;5020973;28;20036;-66
2023/10/02 01:16:07;;;;;;;6.10;2.60;;;;;;;19.52;100.00;101279.91;5027776;28;20030;-66
2023/10/02 01:18:34;;;;;;;12.05;3.78;;;;;;;19.53;99.92;101281.47;5025394;28;20144;-66
2023/10/02 01:21:01;;;;;;;8.27;3.13;;;;;;;19.51;99.99;101286.56;5025941;28;20487;-66
2023/10/02 01:23:30;;;;;;;6.10;2.67;;;;;;;19.51;99.94;101277.59;5012528;28;20552;-65
2023/10/02 01:25:57;;;;;;;9.55;3.22;;;;;;;19.51;100.00;101272.13;5025155;28;20025;-67
2023/10/02 01:28:52;;;;;;;6.88;2.92;;;;;;;19.54;99.93;101276.78;5026127;28;20564;-66
2023/10/02 01:31:40;;;;;;;8.27;3.25;;;;;;;19.52;99.94;101271.72;5024722;28;20386;-66
2023/10/02 01:34:06;;;;;;;7.35;2.92;;;;;;;19.46;99.34;101265.13;5023408;28;20112;-66
2023/10/02 01:36:32;;;;;;;6.63;3.08;;;;;;;19.49;99.66;101277.97;5029032;28;20580;-65
2023/10/02 01:39:10;;;;;;;7.43;2.85;;;;;;;19.50;99.85;101276.81;5009268;28;20037;-66
2023/10/02 01:41:40;;;;;;;7.78;3.03;;;;;;;19.51;99.60;101275.63;5027656;28;20044;-67
2023/10/02 01:44:10;;;;;;;10.95;3.42;;;;;;;19.53;99.53;101275.25;5026102;28;20029;-67
2023/10/02 01:46:49;;;;;;;10.20;3.65;;;;;;;19.53;99.46;101270.53;5026666;28;20405;-66
2023/10/02 01:49:30;;;;;;;6.60;2.78;;;;;;;19.56;99.30;101277.94;5024460;28;20045;-65
2023/10/02 01:52:01;;;;;;;10.02;3.60;;;;;;;19.54;99.39;101274.84;5029827;28;20509;-66
2023/10/02 01:54:29;;;;;;;9.70;2.80;;;;;;;19.56;99.35;101277.16;5012022;28;20049;-66
2023/10/02 01:56:55;;;;;;;10.27;3.10;;;;;;;19.60;98.99;101269.72;5026853;28;20485;-66
2023/10/02 01:59:21;;;;;;;5.78;2.60;;;;;;;19.59;98.78;101268.16;5041096;28;20112;-67
2023/10/02 02:04:25;;;;;;;8.90;2.65;;;;;;;19.54;98.78;101263.91;5027599;28;20034;-66
2023/10/02 02:06:52;;;;;;;9.60;2.75;;;;;;;19.56;98.56;101261.56;5030907;28;20057;-66
2023/10/02 02:09:24;;;;;;;7.93;3.08;;;;;;;19.56;98.50;101266.22;5028762;28;20062;-66
2023/10/02 02:12:12;;;;;;;7.95;2.90;;;;;;;19.58;98.44;101267.41;5030729;28;20030;-66
2023/10/02 02:14:52;;;;;;;13.70;3.10;;;;;;;19.57;98.52;101273.25;5028168;28;20026;-66
2023/10/02 02:17:26;;;;;;;9.05;3.13;;;;;;;19.56;98.67;101261.56;5030881;28;20060;-67
2023/10/02 02:19:52;;;;;;;7.57;2.78;;;;;;;19.58;98.50;101264.66;5033305;28;20037;-66
2023/10/02 02:22:24;;;;;;;9.70;3.08;;;;;;;19.55;98.52;101262.72;5032800;28;20044;-66
2023/10/02 02:24:53;;;;;;;10.65;3.38;;;;;;;19.53;98.51;101256.88;5014093;28;20045;-67
2023/10/02 02:27:19;;;;;;;7.82;2.90;;;;;;;19.59;98.05;101255.28;5026196;28;20025;-66
2023/10/02 02:29:56;;;;;;;7.63;2.72;;;;;;;19.58;98.10;101261.94;5032323;28;20040;-66
2023/10/02 02:35:09;;;;;;;7.85;3.05;;;;;;;19.59;97.90;101254.50;5037439;28;20045;-66
2023/10/02 02:37:35;;;;;;;6.28;2.50;;;;;;;19.56;98.00;101261.56;5032536;28;20118;-67
2023/10/02 02:40:22;;;;;;;7.55;2.92;;;;;;;19.59;98.05;101252.53;5010102;28;20061;-66
2023/10/02 02:42:54;;;;;;;6.55;2.72;;;;;;;19.56;97.80;101250.63;5032190;28;20041;-67
2023/10/02 02:45:31;;;;;;;7.50;2.95;;;;;;;19.57;98.04;101252.16;5031797;28;20072;-66
2023/10/02 02:48:04;;;;;;;5.32;2.67;;;;;;;19.55;97.99;101254.50;5032502;28;20033;-67
2023/10/02 02:50:40;;;;;;;7.55;2.78;;;;;;;19.57;98.17;101246.69;5032267;28;20060;-67
2023/10/02 02:53:16;;;;;;;9.60;3.00;;;;;;;19.57;97.95;101248.63;5030023;28;20108;-66
2023/10/02 02:55:58;;;;;;;10.27;3.10;;;;;;;19.59;97.91;101249.81;5047876;28;20049;-66
2023/10/02 02:58:25;;;;;;;7.07;2.72;;;;;;;19.56;97.50;101239.69;5032973;28;20044;-66
2023/10/02 03:00:53;;;;;;;6.20;2.65;;;;;;;19.52;97.76;101243.63;5031796;28;20026;-68
2023/10/02 03:03:32;;;;;;;8.23;3.35;;;;;;;19.51;97.83;101240.09;5030735;28;20029;-66
2023/10/02 03:05:58;;;;;;;7.82;3.22;;;;;;;19.48;97.63;101248.31;5027835;28;20405;-66
2023/10/02 03:08:39;;;;;;;8.80;3.00;;;;;;;19.49;97.43;101244.44;5028286;28;20084;-66
2023/10/02 03:11:08;;;;;;;6.90;2.63;;;;;;;19.53;97.54;101245.94;5028351;28;20034;-66
2023/10/02 03:13:39;;;;;;;8.32;3.22;;;;;;;19.47;97.00;101242.06;5028639;28;20033;-66
2023/10/02 03:16:15;;;;;;;;;;;;;;;19.43;96.98;101243.28;5026923;28;20038;-66
2023/10/02 03:18:43;;;;;;;8.70;2.75;;;;;;;19.40;97.43;101239.41;5026454;28;19990;-67
2023/10/02 03:21:22;;;;;;;6.78;3.03;;;;;;;19.38;97.44;101241.75;5031788;28;20143;-68
2023/10/02 03:23:53;;;;;;;9.35;2.90;;;;;;;19.34;97.59;101254.66;5028471;28;20397;-67
2023/10/02 03:26:43;;;;;;;6.38;2.80;;;;;;;19.32;97.48;101262.47;5030424;28;20129;-67
2023/10/02 03:29:21;;;;;;;6.65;2.80;;;;;;;19.25;97.92;101250.78;5029064;28;20049;-67
2023/10/02 03:31:51;;;;;;;8.70;2.78;;;;;;;19.23;98.07;101250.41;5029660;28;20041;-66
2023/10/02 03:34:30;;;;;;;12.40;3.08;;;;;;;19.27;97.88;101248.44;5032044;28;20543;-66
2023/10/02 03:37:08;;;;;;;7.78;2.72;;;;;;;19.26;97.72;101247.63;5030446;28;20116;-66
2023/10/02 03:42:25;;;;;;;7.57;2.85;;;;;;;19.24;97.86;101247.25;5046490;28;20120;-66
2023/10/02 03:44:56;;;;;;;6.57;2.47;;;;;;;19.23;97.68;101245.72;5028503;28;20041;-66
2023/10/02 03:47:23;;;;;;;6.07;2.60;;;;;;;19.21;97.98;101244.56;5013006;28;20030;-67
2023/10/02 03:49:50;;;;;;;10.38;3.00;;;;;;;19.14;98.27;101239.91;5028712;28;20061;-66
2023/10/02 03:52:17;;;;;;;6.57;3.03;;;;;;;19.13;98.37;101234.84;5031944;28;20466;-67
2023/10/02 03:54:44;;;;;;;8.07;3.13;;;;;;;19.15;98.53;101237.94;5027808;28;20560;-66
2023/10/02 03:57:11;;;;;;;8.07;2.78;;;;;;;19.13;98.93;101235.63;5031862;28;20043;-66
2023/10/02 03:59:51;;;;;;;9.63;2.75;;;;;;;19.16;99.19;101234.06;5032025;28;20045;-67
2023/10/02 04:02:24;;;;;;;7.80;3.15;;;;;;;19.19;98.91;101230.50;5026649;28;20401;-66
2023/10/02 04:04:49;;;;;;;6.93;3.33;;;;;;;19.18;98.82;101229.72;5027647;28;20036;-66
2023/10/02 04:07:17;;;;;;;8.43;2.70;;;;;;;19.20;98.83;101221.91;5025876;28;20025;-66
2023/10/02 04:09:50;;;;;;;9.80;2.83;;;;;;;19.22;98.69;101230.50;5030523;28;20041;-67
2023/10/02 04:12:19;;;;;;;8.23;3.17;;;;;;;19.20;98.98;101221.16;5014345;28;20159;-66
2023/10/02 04:14:44;;;;;;;8.55;2.90;;;;;;;19.17;98.71;101214.53;5029380;28;20036;-67
2023/10/02 04:17:13;;;;;;;8.77;2.70;;;;;;;19.18;98.76;101228.97;5030051;28;20037;-66
2023/10/02 04:20:02;;;;;;;8.25;2.95;;;;;;;19.17;99.10;101224.66;5031488;28;20029;-66
2023/10/02 04:22:27;;;;;;;10.55;3.30;;;;;;;19.12;99.14;101230.56;5030580;28;20531;-67
2023/10/02 04:24:58;;;;;;;7.70;3.03;;;;;;;19.11;99.22;101231.72;5027476;28;20108;-66
2023/10/02 04:27:27;;;;;;;9.88;3.78;;;;;;;19.10;99.19;101230.97;5028026;28;20037;-67
2023/10/02 04:33:08;;;;;;;10.52;3.40;;;;;;;19.07;98.71;101220.81;5027554;28;20034;-66
2023/10/02 04:35:52;;;;;;;6.97;2.58;;;;;;;19.12;98.46;101217.69;5026262;28;20044;-66
2023/10/02 04:38:47;;;;;;;7.57;3.80;;;;;;;19.14;98.49;101214.56;5025441;28;20495;-66
2023/10/02 04:41:17;;;;;;;8.38;3.28;;;;;;;19.11;98.59;101221.59;5030444;28;20490;-66
2023/10/02 04:43:43;;;;;;;12.07;3.78;;;;;;;19.14;98.67;101217.28;5042817;28;20033;-66
2023/10/02 04:46:08;;;;;;;8.88;2.60;;;;;;;19.13;98.67;101224.69;5026917;28;20397;-67
2023/10/02 04:48:42;;;;;;;8.55;3.10;;;;;;;19.15;98.31;101216.09;5027672;28;20505;-67
2023/10/02 04:51:11;;;;;;;9.05;3.08;;;;;;;19.16;98.26;101218.44;5027376;28;20144;-67
2023/10/02 04:53:39;;;;;;;13.65;4.00;;;;;;;19.13;97.91;101215.72;5027936;28;20075;-66
2023/10/02 04:56:18;;;;;;;10.43;2.92;;;;;;;19.10;97.80;101216.53;5032524;28;20055;-66
2023/10/02 04:58:51;;;;;;;6.22;2.83;;;;;;;19.04;97.52;101210.72;5028522;28;20037;-66
2023/10/02 05:03:55;;;;;;;7.93;2.58;;;;;;;19.10;97.68;101206.38;5022104;28;19913;-67
2023/10/02 05:11:50;;;;;;;6.28;2.58;;;;;;;19.12;97.70;101197.78;5025864;28;20038;-66
2023/10/02 05:14:26;;;;;;;14.63;3.58;;;;;;;19.10;97.72;101205.59;5021746;28;20064;-66
2023/10/02 05:20:00;;;;;;;17.60;3.17;;;;;;;19.07;97.75;101196.25;5025665;28;20090;-67
2023/10/02 05:22:27;;;;;;;10.55;3.13;;;;;;;19.05;97.94;101212.25;5017527;28;20041;-66
2023/10/02 05:25:04;;;;;;;6.95;2.95;;;;;;;19.04;98.18;101210.72;5021573;28;20038;-66
2023/10/02 05:27:31;;;;;;;5.53;2.85;;;;;;;19.02;97.41;101204.88;5041967;28;20039;-66
2023/10/02 05:30:05;;;;;;;9.48;2.25;;;;;;;19.00;97.90;101190.84;5022399;28;20056;-66
2023/10/02 05:32:35;;;;;;;7.40;3.00;;;;;;;19.00;97.75;101203.69;5013439;28;20037;-66
2023/10/02 05:37:45;;;;;;;8.27;3.38;;;;;;;19.01;97.60;101192.38;5017577;28;20052;-66
2023/10/02 05:50:52;;;;;;;10.95;2.83;;;;;;;19.03;97.88;101203.69;5027771;28;20036;-65
2023/10/02 05:53:25;;;;;;;8.48;2.63;;;;;;;19.03;97.39;101217.34;5034028;28;20482;-66
2023/10/02 05:56:05;;;;;;;7.53;2.97;;;;;;;18.98;97.75;101214.25;5028941;28;20490;-66
2023/10/02 05:58:35;;;;;;;7.32;2.65;;;;;;;19.02;97.33;101221.25;5031111;28;20502;-66
2023/10/02 06:01:06;;;;;;;7.25;2.83;;;;;;;19.05;97.20;101225.91;5032617;28;20561;-65
2023/10/02 06:03:37;;;;;;;7.63;2.92;;;;;;;19.09;96.96;101223.94;5032491;28;20064;-66
2023/10/02 06:06:18;;;;;;;8.15;2.88;;;;;;;19.14;96.58;101212.63;5030922;28;20117;-66
2023/10/02 06:08:48;;;;;;;6.07;2.78;;;;;;;19.12;96.49;101209.50;5027697;28;20033;-65
2023/10/02 06:11:28;;;;;;;6.00;2.83;;;;;;;19.11;96.91;101218.06;5030642;28;20052;-66
2023/10/02 06:14:09;;;;;;;7.88;3.13;;;;;;;19.10;96.16;101222.78;5032235;28;20579;-65
2023/10/02 06:16:41;;;;;;;9.75;3.28;;;;;;;19.10;96.47;101219.25;5029590;28;20417;-65
2023/10/02 06:19:13;;;;;;;6.47;3.08;;;;;;;19.16;96.33;101215.72;5029321;28;20046;-65
2023/10/02 06:21:46;;;;;;;7.32;2.88;;;;;;;19.14;96.11;101222.75;5032375;28;20032;-65
2023/10/02 06:24:13;;;;;;;7.22;2.88;;;;;;;19.12;96.50;101227.84;5032837;28;20040;-66
2023/10/02 06:27:04;;;;;;;6.80;2.97;;;;;;;19.17;96.03;101230.13;5029745;28;20036;-65
2023/10/02 06:29:25;;;;;;;7.38;2.88;;;;;;;19.22;95.94;101218.81;5031667;28;20050;-66
2023/10/02 06:31:58;;;;;;;11.25;3.58;;;;;;;19.23;95.60;101223.88;5029797;28;20930;-65
2023/10/02 06:34:37;;;;;;;9.48;2.92;;;;;;;19.27;95.80;101232.81;5030842;28;20403;-65
2023/10/02 06:37:16;;;;;;;9.35;3.25;;;;;;;19.32;95.96;101224.22;5044464;28;20029;-65
2023/10/02 06:40:02;;;;;;;5.82;2.67;;;;;;;19.34;96.39;101235.53;5030530;28;20037;-65
2023/10/02 06:42:28;;;;;;;11.63;3.45;;;;;;;19.40;95.75;101228.47;5028034;28;20040;-66
2023/10/02 06:44:54;;;;;;;11.60;3.00;;;;;;;19.51;95.31;101225.69;5032032;28;20433;-65
2023/10/02 06:47:22;;;;;;;9.35;3.50;;;;;;;19.56;95.20;101231.50;5030794;28;20053;-65
2023/10/02 06:49:52;;;;;;;10.15;3.13;;;;;;;19.57;94.96;101230.28;5011547;28;20124;-65
2023/10/02 06:52:20;;;;;;;6.85;3.10;;;;;;;19.52;94.26;101225.28;5029139;28;20121;-65
2023/10/02 06:54:49;;;;;;;12.23;3.25;;;;;;;19.63;94.92;101233.38;5030298;28;20041;-65
2023/10/02 06:57:18;;;;;;;7.15;2.92;;;;;;;19.65;94.28;101234.53;5029196;28;20026;-65
2023/10/02 06:59:52;;;;;;;6.43;2.38;;;;;;;19.69;93.94;101238.03;5031308;28;20108;-65
2023/10/02 07:02:26;;;;;;;9.70;3.00;;;;;;;19.68;94.23;101233.75;5030469;28;20030;-66
2023/10/02 07:04:53;;;;;;;8.85;2.85;;;;;;;19.74;94.22;101234.84;5024532;28;20076;-66
2023/10/02 07:07:26;;;;;;;9.70;3.47;;;;;;;19.78;93.84;101235.59;5024119;28;20029;-65
2023/10/02 07:09:54;;;;;;;10.20;2.88;;;;;;;19.70;93.92;101244.28;5028759;28;20033;-66
2023/10/02 07:12:21;;;;;;;6.30;3.10;;;;;;;19.74;93.95;101236.81;5028785;28;20091;-65
2023/10/02 07:14:47;;;;;;;6.93;2.88;;;;;;;19.74;93.87;101232.13;5026839;28;20116;-66
2023/10/02 07:17:18;;;;;;;9.48;2.80;;;;;;;19.77;94.09;101239.53;5026749;28;20037;-65
2023/10/02 07:19:51;;;;;;;7.72;3.45;;;;;;;19.79;93.64;101239.91;5027486;28;20060;-65
2023/10/02 07:22:23;;;;;;;8.45;2.75;;;;;;;19.82;94.21;101232.88;5029546;28;20048;-68
2023/10/02 07:24:56;;;;;;;9.30;2.88;;;;;;;19.86;93.82;101232.81;5031091;28;20041;-66
2023/10/02 07:27:28;;;;;;;8.02;3.17;;;;;;;19.99;93.21;101228.41;5030930;28;20033;-66
2023/10/02 07:29:58;;;;;;;7.97;2.67;;;;;;;20.00;93.34;101228.00;5031827;28;20033;-66
2023/10/02 07:32:25;;;;;;;8.73;3.30;;;;;;;20.19;93.13;101235.66;5028640;28;20037;-66
2023/10/02 07:34:53;;;;;;;8.45;3.05;;;;;;;20.20;92.79;101236.44;5028961;28;20080;-67
2023/10/02 07:37:23;;;;;;;8.10;2.95;;;;;;;20.31;92.91;101228.91;5023236;28;20121;-66
2023/10/02 07:39:56;;;;;;;6.18;2.72;;;;;;;20.50;92.34;101217.34;5030062;28;20037;-66
2023/10/02 07:42:28;;;;;;;8.52;2.90;;;;;;;20.65;92.00;101213.28;5028681;28;20531;-66
2023/10/02 07:44:56;;;;;;;6.78;3.08;;;;;;;20.74;91.09;101213.56;5032402;28;20032;-66
2023/10/02 07:47:22;;;;;;;9.02;2.90;;;;;;;20.90;91.01;101227.47;5026714;28;20032;-66
2023/10/02 07:49:51;;;;;;;8.65;2.80;;;;;;;21.05;89.68;101223.38;5029220;28;20033;-66
2023/10/02 07:52:35;;;;;;;9.18;3.17;;;;;;;21.03;89.98;101219.47;5029640;28;20025;-66
2023/10/02 07:55:01;;;;;;;9.05;2.90;;;;;;;21.22;89.92;101221.56;5016078;28;20091;-67
2023/10/02 07:57:32;;;;;;;7.35;3.05;;;;;;;21.39;89.66;101228.75;5029032;28;20489;-66
2023/10/02 08:00:01;;;;;;;11.50;3.45;;;;;;;21.50;89.01;101234.88;5026944;28;20556;-66
2023/10/02 08:02:33;;;;;;;6.57;3.13;;;;;;;21.67;88.15;101235.78;5029084;28;20091;-66
2023/10/02 08:04:59;;;;;;;9.20;3.25;;;;;;;21.65;87.68;101227.97;5028314;28;20025;-66
2023/10/02 08:07:25;;;;;;;10.68;2.95;;;;;;;21.66;87.72;101229.50;5028266;28;20035;-67
2023/10/02 08:09:52;;;;;;;8.20;2.92;;;;;;;21.75;87.50;101220.75;5025367;28;20033;-67
2023/10/02 08:12:30;;;;;;;8.73;3.00;;;;;;;21.92;87.42;101233.44;5032235;28;20025;-66
2023/10/02 08:20:24;;;;;;;14.40;3.38;;;;;;;22.37;84.89;101231.84;5031287;28;20034;-66
2023/10/02 08:22:51;;;;;;;8.43;2.38;;;;;;;22.53;84.32;101234.66;5027857;28;20060;-66
2023/10/02 08:25:17;;;;;;;8.40;3.22;;;;;;;22.73;82.79;101235.47;5024889;28;20649;-66
2023/10/02 08:27:43;;;;;;;7.90;2.72;;;;;;;22.72;82.00;101235.91;5029874;28;20074;-66
2023/10/02 08:30:42;;;;;;;11.30;3.72;;;;;;;22.72;81.31;101238.66;5029032;28;20033;-67
2023/10/02 08:33:11;;;;;;;9.10;3.00;;;;;;;22.57;81.33;101227.16;5022635;28;20460;-66
2023/10/02 08:35:37;;;;;;;7.90;2.83;;;;;;;22.39;82.39;101229.47;5027090;28;20037;-66
2023/10/02 08:38:07;;;;;;;7.45;2.95;;;;;;;22.56;82.49;101225.59;5028315;28;20413;-67
2023/10/02 08:40:40;;;;;;;12.05;3.17;;;;;;;22.64;82.18;101232.53;5024562;28;20072;-66
2023/10/02 08:43:05;;;;;;;8.30;2.88;;;;;;;22.67;81.90;101226.19;5029325;28;20029;-67
2023/10/02 08:45:33;;;;;;;8.15;2.97;;;;;;;22.80;81.49;101227.06;5030640;28;20025;-66
2023/10/02 08:48:07;;;;;;;7.45;2.80;;;;;;;22.87;82.01;101234.41;5025341;28;20061;-66
2023/10/02 08:50:34;;;;;;;12.43;3.30;;;;;;;23.06;80.63;101234.38;5029884;28;20132;-67
2023/10/02 08:53:04;;;;;;;7.10;3.03;;;;;;;23.06;80.64;101239.88;5028242;28;20021;-67
2023/10/02 08:55:40;;;;;;;8.80;2.92;;;;;;;23.11;80.77;101235.88;5029431;28;20034;-66
2023/10/02 09:03:43;;;;;;;8.18;2.88;;;;;;;23.16;81.71;101236.13;5036586;28;20063;-66
2023/10/02 09:06:31;;;;;;;7.75;2.67;;;;;;;23.30;81.01;101241.31;5025409;28;20037;-66
2023/10/02 09:11:41;;;;;;;8.30;2.45;;;;;;;23.69;80.85;101240.41;5027720;28;20037;-66
2023/10/02 09:16:45;;;;;;;7.68;2.80;;;;;;;24.13;78.06;101236.22;5029703;28;20502;-65
2023/10/02 09:19:30;;;;;;;8.60;3.05;;;;;;;24.22;76.53;101232.81;5032982;28;20028;-66
2023/10/02 09:22:10;;;;;;;9.52;3.03;;;;;;;24.22;76.61;101221.81;5025894;28;20142;-66
2023/10/02 09:24:37;;;;;;;8.73;2.75;;;;;;;24.10;75.85;101232.34;5029660;28;20533;-66
2023/10/02 09:32:51;;;;;;;11.40;2.90;;;;;;;23.96;77.80;101226.41;5027725;28;20124;-66
2023/10/02 09:35:23;;;;;;;11.38;2.72;;;;;;;23.96;78.33;101223.66;5041569;28;20128;-66
2023/10/02 09:38:06;;;;;;;6.65;2.78;;;;;;;24.00;78.11;101207.81;5027670;28;20040;-66
2023/10/02 09:41:36;;;;;;;9.80;3.15;;;;;;;23.99;78.94;101209.03;5024109;28;20478;-67
2023/10/02 09:43:36;;;;;;;8.45;2.67;;;;;;;24.14;80.52;101213.75;5016271;28;20049;-66
2023/10/02 09:46:16;;;;;;;10.65;2.95;;;;;;;24.24;79.47;101211.91;5021749;28;20031;-65
2023/10/02 09:51:30;;;;;;;9.02;2.80;;;;;;;24.42;77.78;101206.72;5022340;28;20140;-66
2023/10/02 09:54:09;;;;;;;8.02;3.10;;;;;;;24.42;77.14;101214.97;5042822;28;20034;-65
2023/10/02 09:57:05;;;;;;;10.40;2.70;;;;;;;24.50;77.25;101210.81;5028525;28;20052;-66
2023/10/02 09:59:48;;;;;;;7.65;2.38;;;;;;;24.58;77.12;101211.38;5026193;28;20044;-66
2023/10/02 10:07:52;;;;;;;7.90;2.88;;;;;;;24.62;75.81;101207.31;5028223;28;20044;-66
2023/10/02 10:10:50;;;;;;;8.95;3.13;;;;;;;24.34;75.71;101202.59;5025593;28;20025;-66
2023/10/02 10:13:46;;;;;;;10.13;2.38;;;;;;;24.44;76.00;101196.03;5023828;28;20044;-66
2023/10/02 10:16:20;;;;;;;7.32;2.42;;;;;;;24.51;75.78;101189.53;5021406;28;20029;-66
2023/10/02 10:22:01;;;;;;;8.50;3.28;;;;;;;24.68;75.69;101193.78;5022714;28;20117;-66
2023/10/02 10:24:51;;;;;;;8.52;3.10;;;;;;;24.77;76.06;101196.69;5018404;28;20445;-65
2023/10/02 10:27:41;;;;;;;7.22;2.92;;;;;;;24.88;76.13;101186.13;5023502;28;20037;-65
2023/10/02 10:30:20;;;;;;;6.05;2.33;;;;;;;24.94;76.03;101187.91;5026787;28;20398;-66
2023/10/02 10:32:46;;;;;;;8.63;2.58;;;;;;;25.04;75.51;101192.31;5030246;28;20486;-66
2023/10/02 10:35:31;;;;;;;7.85;2.38;;;;;;;25.10;75.76;101183.47;5027138;28;20087;-67
2023/10/02 10:37:56;;;;;;;10.68;3.30;;;;;;;25.25;74.86;101187.34;5022688;28;20114;-67
2023/10/02 10:40:43;;;;;;;8.18;3.22;;;;;;;25.29;73.71;101188.00;5028243;28;20939;-67
2023/10/02 10:43:14;;;;;;;9.13;2.53;;;;;;;25.32;72.81;101187.13;5027162;28;20041;-67
2023/10/02 10:45:40;;;;;;;10.23;3.40;;;;;;;25.37;72.46;101190.09;5026593;28;20037;-67
2023/10/02 10:48:23;;;;;;;7.93;2.75;;;;;;;25.43;72.38;101187.59;5027894;28;20509;-67
2023/10/02 10:50:59;;;;;;;8.25;2.97;;;;;;;25.55;71.37;101184.03;5027845;28;20033;-67
2023/10/02 10:53:32;;;;;;;8.88;2.97;;;;;;;25.54;70.32;101186.03;5030061;28;20581;-67
2023/10/02 10:56:16;;;;;;;7.35;3.08;;;;;;;25.53;71.40;101176.19;5027002;28;20641;-67
2023/10/02 10:58:44;;;;;;;4.88;2.22;;;;;;;25.69;70.73;101180.78;5043657;28;20124;-67
2023/10/02 11:01:16;;;;;;;8.93;2.65;;;;;;;25.73;70.56;101173.16;5026709;28;20545;-66
2023/10/02 11:03:48;;;;;;;8.85;2.17;;;;;;;25.84;70.27;101173.59;5029490;28;20037;-66
2023/10/02 11:06:16;;;;;;;7.15;2.15;;;;;;;25.92;70.28;101170.13;5028670;28;20037;-67
2023/10/02 11:08:44;;;;;;;5.68;2.38;;;;;;;26.00;69.68;101165.13;5029934;28;20116;-67
2023/10/02 11:11:20;;;;;;;7.28;2.67;;;;;;;26.02;69.33;101162.69;5035901;28;20060;-68
2023/10/02 11:13:50;;;;;;;10.40;2.95;;;;;;;25.93;68.94;101176.44;5028876;28;20052;-67
2023/10/02 11:16:37;;;;;;;7.40;2.13;;;;;;;25.71;69.48;101167.31;5027942;28;20033;-67
2023/10/02 11:19:11;;;;;;;8.05;2.50;;;;;;;25.79;70.12;101171.38;5026369;28;20401;-67
2023/10/02 11:21:45;;;;;;;6.85;2.38;;;;;;;25.83;70.33;101161.00;5024935;28;20036;-67
2023/10/02 11:24:23;;;;;;;6.50;2.50;;;;;;;25.90;70.61;101178.09;5026539;28;20040;-67
2023/10/02 11:26:53;;;;;;;7.50;2.30;;;;;;;25.79;69.93;101174.94;5022803;28;20404;-67
2023/10/02 11:29:23;;;;;;;12.15;2.97;;;;;;;25.87;69.53;101169.94;5026438;28;20064;-67
2023/10/02 11:32:19;;;;;;;5.82;2.38;;;;;;;25.69;69.65;101173.28;5026581;28;20088;-67
2023/10/02 11:35:05;;;;;;;8.23;2.63;;;;;;;25.73;70.50;101162.91;5040499;28;20051;-68
2023/10/02 11:37:31;;;;;;;10.07;2.60;;;;;;;25.73;70.91;101165.66;5045390;28;20065;-67
2023/10/02 11:39:57;;;;;;;5.70;2.30;;;;;;;25.71;71.55;101167.31;5029092;28;20063;-67
2023/10/02 11:42:23;;;;;;;5.38;2.35;;;;;;;25.65;70.82;101156.06;5025823;28;20037;-67
2023/10/02 11:44:49;;;;;;;5.90;2.30;;;;;;;25.59;71.80;101151.59;5031304;28;20082;-67
2023/10/02 11:47:15;;;;;;;5.70;2.25;;;;;;;25.65;72.12;101160.81;5030161;28;20108;-67
2023/10/02 11:49:42;;;;;;;5.70;2.55;;;;;;;25.76;71.18;101139.16;5031096;28;20083;-67
2023/10/02 11:52:08;;;;;;;6.38;2.50;;;;;;;25.80;70.21;101148.84;5031406;28;20048;-67
2023/10/02 11:54:39;;;;;;;5.60;2.05;;;;;;;25.68;69.88;101141.41;5025531;28;20073;-67
2023/10/02 11:57:12;;;;;;;;;;;;;;;25.69;70.67;101142.16;5031256;28;20057;-67
2023/10/02 11:59:42;;;;;;;7.03;2.30;;;;;;;25.78;70.71;101139.50;5026991;28;19921;-67
2023/10/02 12:02:11;;;;;;;9.00;2.60;;;;;;;25.90;71.07;101144.16;5029347;28;20509;-67
2023/10/02 12:04:40;;;;;;;5.75;2.20;;;;;;;26.01;70.82;101143.81;5027784;28;20524;-66
2023/10/02 12:07:06;;;;;;;7.15;2.47;;;;;;;26.14;70.22;101139.03;5023548;28;20072;-66
2023/10/02 12:09:35;;;;;;;7.10;2.50;;;;;;;26.22;70.00;101143.84;5025197;28;20037;-66
2023/10/02 12:12:01;;;;;;;8.90;2.50;;;;;;;26.35;69.74;101138.25;5029761;28;20112;-67
2023/10/02 12:14:28;;;;;;;8.77;2.45;;;;;;;26.50;69.12;101136.53;5030355;28;20187;-67
2023/10/02 12:17:02;;;;;;;5.82;2.30;;;;;;;26.45;68.72;101129.56;5028299;28;20124;-67
2023/10/02 12:19:36;;;;;;;5.35;2.30;;;;;;;26.46;68.88;101138.66;5024935;28;20183;-67
2023/10/02 12:22:05;;;;;;;4.93;1.92;;;;;;;26.50;69.52;101137.28;5025309;28;20025;-67
2023/10/02 12:24:32;;;;;;;8.05;2.03;;;;;;;26.56;69.37;101129.94;5022429;28;20033;-67
2023/10/02 12:26:58;;;;;;;6.53;2.30;;;;;;;26.57;68.89;101120.44;5027010;28;20078;-67
2023/10/02 12:29:24;;;;;;;7.03;2.20;;;;;;;26.50;70.24;101128.97;5033469;28;20067;-67
2023/10/02 12:31:51;;;;;;;7.88;2.13;;;;;;;26.50;70.72;101134.50;5030851;28;20037;-67
2023/10/02 12:34:17;;;;;;;7.47;2.47;;;;;;;26.48;70.45;101134.19;5028168;28;20045;-68
2023/10/02 12:36:44;;;;;;;8.98;2.40;;;;;;;26.43;69.88;101137.53;5033189;28;20124;-67
2023/10/02 12:39:12;;;;;;;5.20;1.85;;;;;;;26.33;69.94;101137.94;5029096;28;20386;-67
2023/10/02 12:41:41;;;;;;;4.78;2.25;;;;;;;26.23;71.07;101134.34;5028401;28;20186;-67
2023/10/02 12:44:08;;;;;;;6.05;2.50;;;;;;;26.23;71.49;101123.28;5022236;28;20106;-67
2023/10/02 12:46:33;;;;;;;6.45;1.65;;;;;;;26.19;70.27;101130.94;5024098;28;20727;-67
2023/10/02 12:49:00;;;;;;;7.65;2.28;;;;;;;26.17;71.29;101127.84;5024713;28;20106;-67
2023/10/02 12:51:26;;;;;;;5.90;2.30;;;;;;;26.16;71.74;101125.53;5027546;28;20033;-67
2023/10/02 12:53:52;;;;;;;6.68;2.33;;;;;;;26.11;71.65;101131.66;5026505;28;20042;-67
2023/10/02 12:56:21;;;;;;;6.65;2.17;;;;;;;26.04;70.56;101131.84;5009455;28;20025;-67
2023/10/02 12:58:50;;;;;;;8.55;2.72;;;;;;;26.05;70.60;101127.88;5027949;28;20068;-67
2023/10/02 13:01:30;;;;;;;6.55;1.95;;;;;;;26.02;70.86;101135.06;5025646;28;20033;-67
2023/10/02 13:03:59;;;;;;;5.75;2.67;;;;;;;26.11;71.29;101137.97;5022697;28;20029;-67